Terminal Aerodrome Forecast
Issued by NWS

Home | Current Version | Previous Version | Graphics & Text | Print | Product List | Glossary On
Versions: 1 2 3 4 5 6 7 8 9 10 11 12 13 14 15 16 17 18 19 20 21 22
000
FTUS43 KIWX 170300 AAB
TAFSBN
TAF AMD
KSBN 170310Z 1703/1724 29012G19KT 6SM -SN BR OVC008
      TEMPO 1703/1705 3SM -SHSN SCT008 OVC015
     FM170500 29012G18KT P6SM OVC015
     FM171200 28012G18KT P6SM BKN020=

USA.gov is the U.S. government's official web portal to all federal, state and local government web resources and services.